Airfield :
LOGIN :

Register | Disclaimer

   EN    FR    IT 

 










Legend :    VFR   Marginal VFR   IFR   Intensive IFR   Very Intensive IFR
Visi :
Ceiling :
>= 8 km
>= 3000ft
5 to 8 km
1000 to 3000 ft
1500m to 5 km
500 to 1000 ft
800 to 1500m
200 to 500 ft
< 800m
< 200 ft
Symbols :   Thunderstorms  Fog  Heavy snow  Heavy precipitations  Wind > 20 kt
SIGMETs :     Misc.  Thunderstorms  Icing  Turbulence  Mountain Waves  Volcanic Ashes







- Airport Elevation : 526 ft
- IATA code : LTN
- Download approach charts


EGGW - London Luton

CURRENT METAR :
  • 221450Z 15003KT 9999 -RA FEW025 10/08 Q1017

EXPIRED METARs :
  • 221420Z AUTO VRB02KT 9999 -RA NCD 11/08 Q1017
  • 221350Z AUTO VRB02KT 9999 -RA NCD 11/08 Q1018
  • 221320Z AUTO 20004KT 160V230 9999 -RA FEW019 11/09 Q1018
  • 221250Z AUTO VRB03KT 9999 -RA FEW042 10/07 Q1018
  • 221220Z AUTO 20005KT 9999 -RA BKN035 BKN048 11/08 Q1019

TAF TAF EGGW
Valid from the 22 at 12:00 until the 23 at 12:00 UTC


221105Z 2212/2312 24007KT 9999 -RA SCT020
PROB40
TEMPO 2212/2218 7000 RA BKN014
BECMG 2214/2217 10010KT
TEMPO 2218/2304 8000 BKN007
BECMG 2221/2224 02010KT
PROB40
TEMPO 2222/2303 3000 BR -DZ BKN003
BECMG 2306/2309 32010KT
PROB40
TEMPO 2309/2312 6000 RA BKN012
ATIS : +44 1582 395 204
No reported NOTAMs for that airfield.
1 SIGMET reported for the London FIR (EGTT) :
 
Severe icing
EGTT SIGMET 06 VALID 221400/221800 EGRR
EGTT LONDON FIR SEV ICE FCST WI N5100 E00128 - N5040 E00128 - N5011 E00014 - N5155 W00407 - N5245 W00251 - N5102 E00139 - N5100 E00128 FL060/150 MOV E 25KT NC=



MET'MAP, your aeronautical weather chart ! - Copyright ORBIFLY December 2007 - Disclaimer

ORBIFLY MET'MAP TEAM :

Programming & Development : Alexandra Zaïnal
Concept & Development : Baudouin d'Aumeries
Co-Development & Prog : Marc-Olivier Méhu
Technical & hardware support : Manuel Goepfert

Contact : metmap@orbifly.com




SOURCES & CREDITS :

   NOAA